sensor_id;sensor_type;location;lat;lon;timestamp;P1;durP1;ratioP1;P2;durP2;ratioP2
19291;SDS011;9779;51.756;7.450;2023-09-12T00:01:30;3.67;;;3.38;;
19291;SDS011;9779;51.756;7.450;2023-09-12T00:03:57;4.70;;;3.17;;
19291;SDS011;9779;51.756;7.450;2023-09-12T00:06:24;6.28;;;3.67;;
19291;SDS011;9779;51.756;7.450;2023-09-12T00:08:49;3.53;;;3.23;;
19291;SDS011;9779;51.756;7.450;2023-09-12T00:11:16;3.83;;;3.50;;
19291;SDS011;9779;51.756;7.450;2023-09-12T00:13:42;3.35;;;3.15;;
19291;SDS011;9779;51.756;7.450;2023-09-12T00:16:09;16.17;;;4.03;;
19291;SDS011;9779;51.756;7.450;2023-09-12T00:18:35;3.60;;;3.40;;
19291;SDS011;9779;51.756;7.450;2023-09-12T00:21:04;3.97;;;3.47;;
19291;SDS011;9779;51.756;7.450;2023-09-12T00:23:30;4.03;;;3.73;;
19291;SDS011;9779;51.756;7.450;2023-09-12T00:25:56;3.20;;;2.90;;
19291;SDS011;9779;51.756;7.450;2023-09-12T00:28:22;3.37;;;3.07;;
19291;SDS011;9779;51.756;7.450;2023-09-12T00:30:48;4.17;;;3.40;;
19291;SDS011;9779;51.756;7.450;2023-09-12T00:33:13;3.40;;;3.20;;
19291;SDS011;9779;51.756;7.450;2023-09-12T00:35:39;3.33;;;2.97;;
19291;SDS011;9779;51.756;7.450;2023-09-12T00:38:05;3.30;;;3.10;;
19291;SDS011;9779;51.756;7.450;2023-09-12T00:40:31;3.20;;;3.00;;
19291;SDS011;9779;51.756;7.450;2023-09-12T00:42:58;3.97;;;3.40;;
19291;SDS011;9779;51.756;7.450;2023-09-12T00:45:24;3.60;;;3.40;;
19291;SDS011;9779;51.756;7.450;2023-09-12T00:47:49;3.63;;;3.03;;
19291;SDS011;9779;51.756;7.450;2023-09-12T00:50:17;2.92;;;2.72;;
19291;SDS011;9779;51.756;7.450;2023-09-12T00:52:45;5.35;;;3.20;;
19291;SDS011;9779;51.756;7.450;2023-09-12T00:55:12;8.93;;;3.30;;
19291;SDS011;9779;51.756;7.450;2023-09-12T00:57:38;3.60;;;3.40;;
19291;SDS011;9779;51.756;7.450;2023-09-12T01:00:04;3.70;;;3.23;;
19291;SDS011;9779;51.756;7.450;2023-09-12T01:02:43;3.77;;;3.57;;
19291;SDS011;9779;51.756;7.450;2023-09-12T01:05:11;5.00;;;3.72;;
19291;SDS011;9779;51.756;7.450;2023-09-12T01:07:39;3.23;;;3.00;;
19291;SDS011;9779;51.756;7.450;2023-09-12T01:10:06;4.03;;;3.67;;
19291;SDS011;9779;51.756;7.450;2023-09-12T01:12:32;4.57;;;3.60;;
19291;SDS011;9779;51.756;7.450;2023-09-12T01:14:58;4.03;;;3.73;;
19291;SDS011;9779;51.756;7.450;2023-09-12T01:17:24;4.97;;;4.63;;
19291;SDS011;9779;51.756;7.450;2023-09-12T01:19:50;5.63;;;5.23;;
19291;SDS011;9779;51.756;7.450;2023-09-12T01:28:04;8.33;;;7.60;;
19291;SDS011;9779;51.756;7.450;2023-09-12T01:30:33;11.67;;;7.40;;
19291;SDS011;9779;51.756;7.450;2023-09-12T01:33:00;9.37;;;8.27;;
19291;SDS011;9779;51.756;7.450;2023-09-12T01:35:26;9.40;;;8.10;;
19291;SDS011;9779;51.756;7.450;2023-09-12T01:37:52;13.10;;;8.53;;
19291;SDS011;9779;51.756;7.450;2023-09-12T01:40:18;9.37;;;8.63;;
19291;SDS011;9779;51.756;7.450;2023-09-12T01:43:07;13.03;;;9.27;;
19291;SDS011;9779;51.756;7.450;2023-09-12T01:45:33;10.68;;;9.63;;
19291;SDS011;9779;51.756;7.450;2023-09-12T01:48:01;11.40;;;10.20;;
19291;SDS011;9779;51.756;7.450;2023-09-12T01:50:30;11.37;;;10.33;;
19291;SDS011;9779;51.756;7.450;2023-09-12T01:52:56;11.03;;;10.07;;
19291;SDS011;9779;51.756;7.450;2023-09-12T01:55:22;11.00;;;9.77;;
19291;SDS011;9779;51.756;7.450;2023-09-12T01:57:49;9.97;;;9.17;;
19291;SDS011;9779;51.756;7.450;2023-09-12T02:00:14;13.97;;;10.07;;
19291;SDS011;9779;51.756;7.450;2023-09-12T02:02:43;12.67;;;11.47;;
19291;SDS011;9779;51.756;7.450;2023-09-12T02:05:18;13.20;;;11.77;;
19291;SDS011;9779;51.756;7.450;2023-09-12T02:07:46;13.43;;;12.00;;
19291;SDS011;9779;51.756;7.450;2023-09-12T02:10:13;13.43;;;12.07;;
19291;SDS011;9779;51.756;7.450;2023-09-12T02:12:39;17.00;;;12.03;;
19291;SDS011;9779;51.756;7.450;2023-09-12T02:15:05;13.83;;;12.63;;
19291;SDS011;9779;51.756;7.450;2023-09-12T02:17:31;15.57;;;12.47;;
19291;SDS011;9779;51.756;7.450;2023-09-12T02:19:56;17.67;;;12.37;;
19291;SDS011;9779;51.756;7.450;2023-09-12T02:22:22;14.37;;;11.70;;
19291;SDS011;9779;51.756;7.450;2023-09-12T02:24:47;16.87;;;13.00;;
19291;SDS011;9779;51.756;7.450;2023-09-12T02:27:14;15.43;;;12.40;;
19291;SDS011;9779;51.756;7.450;2023-09-12T02:29:41;13.97;;;12.67;;
19291;SDS011;9779;51.756;7.450;2023-09-12T02:32:07;14.83;;;11.70;;
19291;SDS011;9779;51.756;7.450;2023-09-12T02:34:33;15.00;;;12.67;;
19291;SDS011;9779;51.756;7.450;2023-09-12T02:36:59;14.00;;;12.73;;
19291;SDS011;9779;51.756;7.450;2023-09-12T02:39:25;13.40;;;12.10;;
19291;SDS011;9779;51.756;7.450;2023-09-12T02:41:50;14.80;;;12.93;;
19291;SDS011;9779;51.756;7.450;2023-09-12T02:44:16;13.00;;;11.90;;
19291;SDS011;9779;51.756;7.450;2023-09-12T02:46:42;13.13;;;12.00;;
19291;SDS011;9779;51.756;7.450;2023-09-12T02:49:07;14.57;;;13.27;;
19291;SDS011;9779;51.756;7.450;2023-09-12T02:51:33;17.73;;;12.93;;
19291;SDS011;9779;51.756;7.450;2023-09-12T02:53:58;13.73;;;12.63;;
19291;SDS011;9779;51.756;7.450;2023-09-12T02:56:24;12.83;;;11.73;;
19291;SDS011;9779;51.756;7.450;2023-09-12T02:58:50;13.80;;;12.43;;
19291;SDS011;9779;51.756;7.450;2023-09-12T03:01:19;13.63;;;12.33;;
19291;SDS011;9779;51.756;7.450;2023-09-12T03:03:48;14.10;;;12.43;;
19291;SDS011;9779;51.756;7.450;2023-09-12T03:06:14;14.93;;;12.00;;
19291;SDS011;9779;51.756;7.450;2023-09-12T03:08:41;14.90;;;11.93;;
19291;SDS011;9779;51.756;7.450;2023-09-12T03:11:08;22.03;;;13.73;;
19291;SDS011;9779;51.756;7.450;2023-09-12T03:13:34;27.63;;;15.50;;
19291;SDS011;9779;51.756;7.450;2023-09-12T03:16:01;19.50;;;13.90;;
19291;SDS011;9779;51.756;7.450;2023-09-12T03:18:26;24.80;;;14.37;;
19291;SDS011;9779;51.756;7.450;2023-09-12T03:20:52;19.07;;;13.53;;
19291;SDS011;9779;51.756;7.450;2023-09-12T03:23:19;18.60;;;12.80;;
19291;SDS011;9779;51.756;7.450;2023-09-12T03:25:44;18.03;;;12.77;;
19291;SDS011;9779;51.756;7.450;2023-09-12T03:28:10;15.93;;;11.97;;
19291;SDS011;9779;51.756;7.450;2023-09-12T03:30:36;20.60;;;13.90;;
19291;SDS011;9779;51.756;7.450;2023-09-12T03:33:03;18.83;;;13.90;;
19291;SDS011;9779;51.756;7.450;2023-09-12T03:35:30;19.13;;;12.57;;
19291;SDS011;9779;51.756;7.450;2023-09-12T03:37:57;14.63;;;13.20;;
19291;SDS011;9779;51.756;7.450;2023-09-12T03:40:22;18.53;;;13.60;;
19291;SDS011;9779;51.756;7.450;2023-09-12T03:42:48;28.80;;;14.17;;
19291;SDS011;9779;51.756;7.450;2023-09-12T03:45:13;21.20;;;14.37;;
19291;SDS011;9779;51.756;7.450;2023-09-12T03:47:39;19.23;;;13.07;;
19291;SDS011;9779;51.756;7.450;2023-09-12T03:50:05;27.77;;;13.13;;
19291;SDS011;9779;51.756;7.450;2023-09-12T03:52:31;17.07;;;11.87;;
19291;SDS011;9779;51.756;7.450;2023-09-12T03:54:56;21.57;;;11.90;;
19291;SDS011;9779;51.756;7.450;2023-09-12T03:57:22;18.33;;;10.73;;
19291;SDS011;9779;51.756;7.450;2023-09-12T03:59:47;12.10;;;10.37;;
19291;SDS011;9779;51.756;7.450;2023-09-12T04:02:13;16.33;;;10.17;;
19291;SDS011;9779;51.756;7.450;2023-09-12T04:04:39;13.43;;;9.87;;
19291;SDS011;9779;51.756;7.450;2023-09-12T04:07:04;13.40;;;7.93;;
19291;SDS011;9779;51.756;7.450;2023-09-12T04:09:30;9.87;;;8.07;;
19291;SDS011;9779;51.756;7.450;2023-09-12T04:11:56;11.47;;;9.77;;
19291;SDS011;9779;51.756;7.450;2023-09-12T04:14:22;12.43;;;11.03;;
19291;SDS011;9779;51.756;7.450;2023-09-12T04:16:47;11.50;;;10.50;;
19291;SDS011;9779;51.756;7.450;2023-09-12T04:19:13;11.43;;;10.53;;
19291;SDS011;9779;51.756;7.450;2023-09-12T04:21:39;12.60;;;10.60;;
19291;SDS011;9779;51.756;7.450;2023-09-12T04:24:05;12.63;;;11.33;;
19291;SDS011;9779;51.756;7.450;2023-09-12T04:26:31;11.87;;;10.77;;
19291;SDS011;9779;51.756;7.450;2023-09-12T04:28:57;12.53;;;11.37;;
19291;SDS011;9779;51.756;7.450;2023-09-12T04:31:23;12.73;;;11.27;;
19291;SDS011;9779;51.756;7.450;2023-09-12T04:33:50;13.50;;;12.10;;
19291;SDS011;9779;51.756;7.450;2023-09-12T04:36:17;12.73;;;11.23;;
19291;SDS011;9779;51.756;7.450;2023-09-12T04:38:43;14.27;;;11.60;;
19291;SDS011;9779;51.756;7.450;2023-09-12T04:41:08;13.13;;;11.83;;
19291;SDS011;9779;51.756;7.450;2023-09-12T04:43:39;15.20;;;11.67;;
19291;SDS011;9779;51.756;7.450;2023-09-12T04:46:04;12.50;;;11.40;;
19291;SDS011;9779;51.756;7.450;2023-09-12T04:48:30;14.17;;;12.83;;
19291;SDS011;9779;51.756;7.450;2023-09-12T04:50:56;13.93;;;12.47;;
19291;SDS011;9779;51.756;7.450;2023-09-12T04:53:22;13.47;;;12.17;;
19291;SDS011;9779;51.756;7.450;2023-09-12T04:55:47;14.13;;;12.77;;
19291;SDS011;9779;51.756;7.450;2023-09-12T04:58:13;14.60;;;13.10;;
19291;SDS011;9779;51.756;7.450;2023-09-12T05:00:39;14.53;;;12.07;;
19291;SDS011;9779;51.756;7.450;2023-09-12T05:03:05;13.17;;;11.97;;
19291;SDS011;9779;51.756;7.450;2023-09-12T05:05:33;16.10;;;11.63;;
19291;SDS011;9779;51.756;7.450;2023-09-12T05:08:01;13.87;;;12.73;;
19291;SDS011;9779;51.756;7.450;2023-09-12T05:10:27;13.53;;;12.17;;
19291;SDS011;9779;51.756;7.450;2023-09-12T05:12:52;14.00;;;12.57;;
19291;SDS011;9779;51.756;7.450;2023-09-12T05:15:18;14.00;;;12.57;;
19291;SDS011;9779;51.756;7.450;2023-09-12T05:17:43;15.73;;;12.87;;
19291;SDS011;9779;51.756;7.450;2023-09-12T05:20:09;15.50;;;13.03;;
19291;SDS011;9779;51.756;7.450;2023-09-12T05:22:35;13.80;;;12.53;;
19291;SDS011;9779;51.756;7.450;2023-09-12T05:25:00;12.63;;;11.60;;
19291;SDS011;9779;51.756;7.450;2023-09-12T05:27:26;16.63;;;13.97;;
19291;SDS011;9779;51.756;7.450;2023-09-12T05:29:51;17.60;;;12.83;;
19291;SDS011;9779;51.756;7.450;2023-09-12T05:32:17;13.50;;;11.60;;
19291;SDS011;9779;51.756;7.450;2023-09-12T05:34:43;13.93;;;11.30;;
19291;SDS011;9779;51.756;7.450;2023-09-12T05:37:10;16.77;;;12.30;;
19291;SDS011;9779;51.756;7.450;2023-09-12T05:39:35;13.77;;;12.37;;
19291;SDS011;9779;51.756;7.450;2023-09-12T05:42:01;20.53;;;12.53;;
19291;SDS011;9779;51.756;7.450;2023-09-12T05:44:27;13.47;;;12.00;;
19291;SDS011;9779;51.756;7.450;2023-09-12T05:46:52;13.13;;;12.07;;
19291;SDS011;9779;51.756;7.450;2023-09-12T05:49:18;12.33;;;11.13;;
19291;SDS011;9779;51.756;7.450;2023-09-12T05:51:44;11.73;;;10.73;;
19291;SDS011;9779;51.756;7.450;2023-09-12T05:54:10;13.20;;;11.93;;
19291;SDS011;9779;51.756;7.450;2023-09-12T05:56:38;12.40;;;11.23;;
19291;SDS011;9779;51.756;7.450;2023-09-12T05:59:04;14.63;;;13.13;;
19291;SDS011;9779;51.756;7.450;2023-09-12T06:01:30;17.17;;;12.47;;
19291;SDS011;9779;51.756;7.450;2023-09-12T06:03:56;15.50;;;13.07;;
19291;SDS011;9779;51.756;7.450;2023-09-12T06:06:21;14.20;;;12.70;;
19291;SDS011;9779;51.756;7.450;2023-09-12T06:08:47;18.53;;;13.50;;
19291;SDS011;9779;51.756;7.450;2023-09-12T06:11:13;16.43;;;13.37;;
19291;SDS011;9779;51.756;7.450;2023-09-12T06:13:39;14.40;;;13.10;;
19291;SDS011;9779;51.756;7.450;2023-09-12T06:16:04;18.67;;;12.30;;
19291;SDS011;9779;51.756;7.450;2023-09-12T06:18:31;14.13;;;10.63;;
19291;SDS011;9779;51.756;7.450;2023-09-12T06:21:00;20.63;;;12.40;;
19291;SDS011;9779;51.756;7.450;2023-09-12T06:23:31;14.87;;;12.70;;
19291;SDS011;9779;51.756;7.450;2023-09-12T06:25:56;11.70;;;10.50;;
19291;SDS011;9779;51.756;7.450;2023-09-12T06:28:25;19.37;;;12.40;;
19291;SDS011;9779;51.756;7.450;2023-09-12T06:30:52;13.23;;;11.50;;
19291;SDS011;9779;51.756;7.450;2023-09-12T06:33:17;13.33;;;11.83;;
19291;SDS011;9779;51.756;7.450;2023-09-12T06:35:43;14.23;;;10.70;;
19291;SDS011;9779;51.756;7.450;2023-09-12T06:38:08;20.43;;;12.67;;
19291;SDS011;9779;51.756;7.450;2023-09-12T06:40:34;16.20;;;12.43;;
19291;SDS011;9779;51.756;7.450;2023-09-12T06:43:00;12.07;;;10.87;;
19291;SDS011;9779;51.756;7.450;2023-09-12T06:45:25;11.27;;;10.20;;
19291;SDS011;9779;51.756;7.450;2023-09-12T06:47:51;12.30;;;11.10;;
19291;SDS011;9779;51.756;7.450;2023-09-12T06:50:16;11.87;;;10.40;;
19291;SDS011;9779;51.756;7.450;2023-09-12T06:52:42;10.33;;;9.23;;
19291;SDS011;9779;51.756;7.450;2023-09-12T06:55:07;13.33;;;11.00;;
19291;SDS011;9779;51.756;7.450;2023-09-12T06:57:33;12.00;;;10.60;;
19291;SDS011;9779;51.756;7.450;2023-09-12T06:59:59;14.10;;;11.93;;
19291;SDS011;9779;51.756;7.450;2023-09-12T07:02:26;16.37;;;11.70;;
19291;SDS011;9779;51.756;7.450;2023-09-12T07:04:51;14.57;;;12.23;;
19291;SDS011;9779;51.756;7.450;2023-09-12T07:07:17;14.20;;;11.30;;
19291;SDS011;9779;51.756;7.450;2023-09-12T07:09:44;15.10;;;12.33;;
19291;SDS011;9779;51.756;7.450;2023-09-12T07:12:09;15.03;;;12.03;;
19291;SDS011;9779;51.756;7.450;2023-09-12T07:14:35;16.57;;;12.73;;
19291;SDS011;9779;51.756;7.450;2023-09-12T07:17:02;18.40;;;11.53;;
19291;SDS011;9779;51.756;7.450;2023-09-12T07:19:29;12.33;;;11.10;;
19291;SDS011;9779;51.756;7.450;2023-09-12T07:21:54;14.27;;;12.90;;
19291;SDS011;9779;51.756;7.450;2023-09-12T07:24:20;18.13;;;12.73;;
19291;SDS011;9779;51.756;7.450;2023-09-12T07:26:50;13.93;;;10.93;;
19291;SDS011;9779;51.756;7.450;2023-09-12T07:29:16;11.63;;;10.53;;
19291;SDS011;9779;51.756;7.450;2023-09-12T07:31:41;15.77;;;11.43;;
19291;SDS011;9779;51.756;7.450;2023-09-12T07:34:07;13.53;;;12.20;;
19291;SDS011;9779;51.756;7.450;2023-09-12T07:36:33;13.90;;;12.37;;
19291;SDS011;9779;51.756;7.450;2023-09-12T07:38:58;18.47;;;11.93;;
19291;SDS011;9779;51.756;7.450;2023-09-12T07:41:24;14.93;;;11.23;;
19291;SDS011;9779;51.756;7.450;2023-09-12T07:43:50;12.10;;;10.57;;
19291;SDS011;9779;51.756;7.450;2023-09-12T07:46:15;11.83;;;10.80;;
19291;SDS011;9779;51.756;7.450;2023-09-12T07:48:41;19.20;;;11.63;;
19291;SDS011;9779;51.756;7.450;2023-09-12T07:51:13;14.80;;;13.23;;
19291;SDS011;9779;51.756;7.450;2023-09-12T07:53:40;13.17;;;12.17;;
19291;SDS011;9779;51.756;7.450;2023-09-12T07:56:06;11.97;;;9.57;;
19291;SDS011;9779;51.756;7.450;2023-09-12T07:58:33;18.20;;;11.83;;
19291;SDS011;9779;51.756;7.450;2023-09-12T08:00:59;13.37;;;10.57;;
19291;SDS011;9779;51.756;7.450;2023-09-12T08:03:29;13.93;;;10.40;;
19291;SDS011;9779;51.756;7.450;2023-09-12T08:05:56;13.67;;;10.77;;
19291;SDS011;9779;51.756;7.450;2023-09-12T08:08:22;12.50;;;11.00;;
19291;SDS011;9779;51.756;7.450;2023-09-12T08:10:48;13.13;;;11.77;;
19291;SDS011;9779;51.756;7.450;2023-09-12T08:13:14;12.37;;;11.20;;
19291;SDS011;9779;51.756;7.450;2023-09-12T08:15:40;9.53;;;8.80;;
19291;SDS011;9779;51.756;7.450;2023-09-12T08:18:05;10.47;;;9.57;;
19291;SDS011;9779;51.756;7.450;2023-09-12T08:20:31;12.17;;;9.97;;
19291;SDS011;9779;51.756;7.450;2023-09-12T08:22:56;11.60;;;10.40;;
19291;SDS011;9779;51.756;7.450;2023-09-12T08:25:22;13.30;;;10.03;;
19291;SDS011;9779;51.756;7.450;2023-09-12T08:27:49;12.10;;;9.07;;
19291;SDS011;9779;51.756;7.450;2023-09-12T08:30:15;9.57;;;8.53;;
19291;SDS011;9779;51.756;7.450;2023-09-12T08:32:41;10.07;;;9.17;;
19291;SDS011;9779;51.756;7.450;2023-09-12T08:35:09;8.97;;;8.23;;
19291;SDS011;9779;51.756;7.450;2023-09-12T08:37:41;7.83;;;7.13;;
19291;SDS011;9779;51.756;7.450;2023-09-12T08:40:08;10.30;;;9.33;;
19291;SDS011;9779;51.756;7.450;2023-09-12T08:42:41;8.77;;;8.00;;
19291;SDS011;9779;51.756;7.450;2023-09-12T08:45:15;12.83;;;7.70;;
19291;SDS011;9779;51.756;7.450;2023-09-12T08:47:42;8.47;;;7.70;;
19291;SDS011;9779;51.756;7.450;2023-09-12T08:50:12;10.73;;;9.77;;
19291;SDS011;9779;51.756;7.450;2023-09-12T08:52:40;13.70;;;9.47;;
19291;SDS011;9779;51.756;7.450;2023-09-12T08:55:07;8.43;;;7.83;;
19291;SDS011;9779;51.756;7.450;2023-09-12T08:57:33;9.50;;;8.67;;
19291;SDS011;9779;51.756;7.450;2023-09-12T09:00:00;10.53;;;9.33;;
19291;SDS011;9779;51.756;7.450;2023-09-12T09:02:31;9.87;;;8.90;;
19291;SDS011;9779;51.756;7.450;2023-09-12T09:04:58;9.63;;;8.80;;
19291;SDS011;9779;51.756;7.450;2023-09-12T09:07:25;11.07;;;10.03;;
19291;SDS011;9779;51.756;7.450;2023-09-12T09:09:52;10.83;;;9.33;;
19291;SDS011;9779;51.756;7.450;2023-09-12T09:12:18;11.20;;;10.40;;
19291;SDS011;9779;51.756;7.450;2023-09-12T09:14:44;11.20;;;10.20;;
19291;SDS011;9779;51.756;7.450;2023-09-12T09:17:10;12.30;;;10.23;;
19291;SDS011;9779;51.756;7.450;2023-09-12T09:19:41;9.35;;;8.55;;
19291;SDS011;9779;51.756;7.450;2023-09-12T09:22:08;9.47;;;8.67;;
19291;SDS011;9779;51.756;7.450;2023-09-12T09:24:33;12.43;;;10.27;;
19291;SDS011;9779;51.756;7.450;2023-09-12T09:26:59;9.95;;;9.07;;
19291;SDS011;9779;51.756;7.450;2023-09-12T09:29:25;9.97;;;8.93;;
19291;SDS011;9779;51.756;7.450;2023-09-12T09:31:56;10.33;;;9.43;;
19291;SDS011;9779;51.756;7.450;2023-09-12T09:34:23;8.57;;;7.77;;
19291;SDS011;9779;51.756;7.450;2023-09-12T09:36:50;7.90;;;7.13;;
19291;SDS011;9779;51.756;7.450;2023-09-12T09:39:17;9.25;;;7.40;;
19291;SDS011;9779;51.756;7.450;2023-09-12T09:41:54;7.97;;;6.90;;
19291;SDS011;9779;51.756;7.450;2023-09-12T09:44:21;9.97;;;7.70;;
19291;SDS011;9779;51.756;7.450;2023-09-12T09:46:51;6.43;;;6.00;;
19291;SDS011;9779;51.756;7.450;2023-09-12T09:49:20;7.43;;;6.93;;
19291;SDS011;9779;51.756;7.450;2023-09-12T09:51:46;7.68;;;5.05;;
19291;SDS011;9779;51.756;7.450;2023-09-12T09:54:12;5.87;;;5.37;;
19291;SDS011;9779;51.756;7.450;2023-09-12T09:59:18;6.70;;;4.55;;
19291;SDS011;9779;51.756;7.450;2023-09-12T10:01:46;4.43;;;3.95;;
19291;SDS011;9779;51.756;7.450;2023-09-12T10:04:14;5.53;;;3.78;;
19291;SDS011;9779;51.756;7.450;2023-09-12T10:06:40;3.42;;;3.22;;
19291;SDS011;9779;51.756;7.450;2023-09-12T10:09:09;4.17;;;3.77;;
19291;SDS011;9779;51.756;7.450;2023-09-12T10:11:37;3.15;;;2.95;;
19291;SDS011;9779;51.756;7.450;2023-09-12T10:14:04;3.60;;;3.30;;
19291;SDS011;9779;51.756;7.450;2023-09-12T10:16:44;2.67;;;2.55;;
19291;SDS011;9779;51.756;7.450;2023-09-12T10:19:25;3.70;;;3.40;;
19291;SDS011;9779;51.756;7.450;2023-09-12T10:21:59;2.97;;;2.78;;
19291;SDS011;9779;51.756;7.450;2023-09-12T10:24:37;3.17;;;2.47;;
19291;SDS011;9779;51.756;7.450;2023-09-12T10:27:05;2.33;;;2.13;;
19291;SDS011;9779;51.756;7.450;2023-09-12T10:29:31;2.95;;;2.75;;
19291;SDS011;9779;51.756;7.450;2023-09-12T10:31:57;4.38;;;2.75;;
19291;SDS011;9779;51.756;7.450;2023-09-12T10:34:24;2.65;;;2.45;;
19291;SDS011;9779;51.756;7.450;2023-09-12T10:36:51;2.83;;;2.50;;
19291;SDS011;9779;51.756;7.450;2023-09-12T10:39:19;4.97;;;3.47;;
19291;SDS011;9779;51.756;7.450;2023-09-12T10:41:47;3.25;;;3.00;;
19291;SDS011;9779;51.756;7.450;2023-09-12T10:44:17;5.65;;;3.00;;
19291;SDS011;9779;51.756;7.450;2023-09-12T10:46:43;2.90;;;2.70;;
19291;SDS011;9779;51.756;7.450;2023-09-12T10:49:11;2.50;;;2.30;;
19291;SDS011;9779;51.756;7.450;2023-09-12T10:51:41;3.05;;;2.63;;
19291;SDS011;9779;51.756;7.450;2023-09-12T10:54:07;3.97;;;2.53;;
19291;SDS011;9779;51.756;7.450;2023-09-12T10:56:34;6.07;;;3.63;;
19291;SDS011;9779;51.756;7.450;2023-09-12T11:01:38;3.30;;;2.40;;
19291;SDS011;9779;51.756;7.450;2023-09-12T11:06:49;3.00;;;2.80;;
19291;SDS011;9779;51.756;7.450;2023-09-12T11:11:43;3.15;;;2.95;;
19291;SDS011;9779;51.756;7.450;2023-09-12T11:14:11;2.92;;;2.72;;
19291;SDS011;9779;51.756;7.450;2023-09-12T11:16:37;3.47;;;2.63;;
19291;SDS011;9779;51.756;7.450;2023-09-12T11:19:17;3.97;;;2.97;;
19291;SDS011;9779;51.756;7.450;2023-09-12T11:21:44;2.30;;;2.20;;
19291;SDS011;9779;51.756;7.450;2023-09-12T11:24:10;2.90;;;2.30;;
19291;SDS011;9779;51.756;7.450;2023-09-12T11:26:51;3.30;;;3.10;;
19291;SDS011;9779;51.756;7.450;2023-09-12T11:29:34;1.98;;;1.88;;
19291;SDS011;9779;51.756;7.450;2023-09-12T11:32:01;2.30;;;2.10;;
19291;SDS011;9779;51.756;7.450;2023-09-12T11:34:35;3.25;;;2.30;;
19291;SDS011;9779;51.756;7.450;2023-09-12T11:37:03;3.53;;;2.53;;
19291;SDS011;9779;51.756;7.450;2023-09-12T11:39:30;2.85;;;2.53;;
19291;SDS011;9779;51.756;7.450;2023-09-12T11:41:58;2.90;;;2.70;;
19291;SDS011;9779;51.756;7.450;2023-09-12T11:44:24;2.45;;;2.35;;
19291;SDS011;9779;51.756;7.450;2023-09-12T11:46:51;1.90;;;1.80;;
19291;SDS011;9779;51.756;7.450;2023-09-12T11:49:18;2.92;;;2.72;;
19291;SDS011;9779;51.756;7.450;2023-09-12T11:51:51;2.13;;;1.98;;
19291;SDS011;9779;51.756;7.450;2023-09-12T11:54:19;2.42;;;2.22;;
19291;SDS011;9779;51.756;7.450;2023-09-12T11:56:48;3.28;;;2.78;;
19291;SDS011;9779;51.756;7.450;2023-09-12T11:59:14;4.72;;;2.42;;
19291;SDS011;9779;51.756;7.450;2023-09-12T12:01:43;2.03;;;1.92;;
19291;SDS011;9779;51.756;7.450;2023-09-12T12:04:10;2.65;;;2.55;;
19291;SDS011;9779;51.756;7.450;2023-09-12T12:06:36;2.63;;;2.00;;
19291;SDS011;9779;51.756;7.450;2023-09-12T12:09:01;3.55;;;2.50;;
19291;SDS011;9779;51.756;7.450;2023-09-12T12:11:29;2.88;;;2.67;;
19291;SDS011;9779;51.756;7.450;2023-09-12T12:13:55;1.85;;;1.75;;
19291;SDS011;9779;51.756;7.450;2023-09-12T12:16:20;2.47;;;1.95;;
19291;SDS011;9779;51.756;7.450;2023-09-12T12:18:46;2.60;;;2.40;;
19291;SDS011;9779;51.756;7.450;2023-09-12T12:21:12;2.50;;;2.33;;
19291;SDS011;9779;51.756;7.450;2023-09-12T12:23:37;3.38;;;3.08;;
19291;SDS011;9779;51.756;7.450;2023-09-12T12:26:05;3.42;;;2.83;;
19291;SDS011;9779;51.756;7.450;2023-09-12T12:28:34;2.83;;;2.63;;
19291;SDS011;9779;51.756;7.450;2023-09-12T12:31:00;2.90;;;2.60;;
19291;SDS011;9779;51.756;7.450;2023-09-12T12:33:26;3.08;;;2.80;;
19291;SDS011;9779;51.756;7.450;2023-09-12T12:35:59;4.57;;;3.20;;
19291;SDS011;9779;51.756;7.450;2023-09-12T12:38:33;4.13;;;2.45;;
19291;SDS011;9779;51.756;7.450;2023-09-12T12:41:00;3.17;;;2.97;;
19291;SDS011;9779;51.756;7.450;2023-09-12T12:43:25;2.45;;;2.22;;
19291;SDS011;9779;51.756;7.450;2023-09-12T12:45:56;2.88;;;2.67;;
19291;SDS011;9779;51.756;7.450;2023-09-12T12:48:29;3.45;;;2.80;;
19291;SDS011;9779;51.756;7.450;2023-09-12T12:50:56;2.90;;;2.70;;
19291;SDS011;9779;51.756;7.450;2023-09-12T12:53:40;5.60;;;3.50;;
19291;SDS011;9779;51.756;7.450;2023-09-12T12:56:07;3.33;;;3.13;;
19291;SDS011;9779;51.756;7.450;2023-09-12T12:58:33;2.47;;;2.28;;
19291;SDS011;9779;51.756;7.450;2023-09-12T13:01:00;2.53;;;2.33;;
19291;SDS011;9779;51.756;7.450;2023-09-12T13:03:26;3.08;;;2.88;;
19291;SDS011;9779;51.756;7.450;2023-09-12T13:05:51;2.35;;;2.13;;
19291;SDS011;9779;51.756;7.450;2023-09-12T13:08:17;3.40;;;3.10;;
19291;SDS011;9779;51.756;7.450;2023-09-12T13:10:43;3.60;;;3.38;;
19291;SDS011;9779;51.756;7.450;2023-09-12T13:13:09;2.83;;;2.55;;
19291;SDS011;9779;51.756;7.450;2023-09-12T13:15:35;3.10;;;2.90;;
19291;SDS011;9779;51.756;7.450;2023-09-12T13:18:00;2.83;;;2.60;;
19291;SDS011;9779;51.756;7.450;2023-09-12T13:20:26;2.38;;;2.17;;
19291;SDS011;9779;51.756;7.450;2023-09-12T13:22:52;3.05;;;2.85;;
19291;SDS011;9779;51.756;7.450;2023-09-12T13:25:18;2.42;;;2.22;;
19291;SDS011;9779;51.756;7.450;2023-09-12T13:27:45;4.15;;;2.33;;
19291;SDS011;9779;51.756;7.450;2023-09-12T13:30:11;4.50;;;2.33;;
19291;SDS011;9779;51.756;7.450;2023-09-12T13:32:37;2.58;;;2.38;;
19291;SDS011;9779;51.756;7.450;2023-09-12T13:35:02;4.15;;;2.00;;
19291;SDS011;9779;51.756;7.450;2023-09-12T13:37:28;2.95;;;2.60;;
19291;SDS011;9779;51.756;7.450;2023-09-12T13:39:55;4.40;;;2.63;;
19291;SDS011;9779;51.756;7.450;2023-09-12T13:42:21;2.30;;;2.17;;
19291;SDS011;9779;51.756;7.450;2023-09-12T13:44:47;2.83;;;2.47;;
19291;SDS011;9779;51.756;7.450;2023-09-12T13:47:13;2.72;;;2.55;;
19291;SDS011;9779;51.756;7.450;2023-09-12T13:49:38;2.63;;;2.42;;
19291;SDS011;9779;51.756;7.450;2023-09-12T13:52:04;2.30;;;2.10;;
19291;SDS011;9779;51.756;7.450;2023-09-12T13:54:30;2.75;;;2.25;;
19291;SDS011;9779;51.756;7.450;2023-09-12T13:56:56;4.13;;;2.13;;
19291;SDS011;9779;51.756;7.450;2023-09-12T13:59:21;3.03;;;2.72;;
19291;SDS011;9779;51.756;7.450;2023-09-12T14:01:47;3.15;;;2.63;;
19291;SDS011;9779;51.756;7.450;2023-09-12T14:04:12;2.22;;;2.13;;
19291;SDS011;9779;51.756;7.450;2023-09-12T14:06:38;4.47;;;2.08;;
19291;SDS011;9779;51.756;7.450;2023-09-12T14:09:04;5.28;;;1.98;;
19291;SDS011;9779;51.756;7.450;2023-09-12T14:11:30;2.38;;;2.15;;
19291;SDS011;9779;51.756;7.450;2023-09-12T14:13:55;2.67;;;2.47;;
19291;SDS011;9779;51.756;7.450;2023-09-12T14:16:21;2.75;;;2.50;;
19291;SDS011;9779;51.756;7.450;2023-09-12T14:18:46;2.08;;;1.98;;
19291;SDS011;9779;51.756;7.450;2023-09-12T14:21:12;2.10;;;1.98;;
19291;SDS011;9779;51.756;7.450;2023-09-12T14:23:38;2.58;;;2.38;;
19291;SDS011;9779;51.756;7.450;2023-09-12T14:26:03;2.80;;;2.08;;
19291;SDS011;9779;51.756;7.450;2023-09-12T14:28:29;2.40;;;2.20;;
19291;SDS011;9779;51.756;7.450;2023-09-12T14:30:57;3.95;;;2.10;;
19291;SDS011;9779;51.756;7.450;2023-09-12T14:33:22;2.20;;;2.03;;
19291;SDS011;9779;51.756;7.450;2023-09-12T14:35:48;2.83;;;2.03;;
19291;SDS011;9779;51.756;7.450;2023-09-12T14:38:14;2.20;;;2.00;;
19291;SDS011;9779;51.756;7.450;2023-09-12T14:40:40;2.10;;;2.00;;
19291;SDS011;9779;51.756;7.450;2023-09-12T14:43:05;1.80;;;1.70;;
19291;SDS011;9779;51.756;7.450;2023-09-12T14:45:32;2.95;;;2.75;;
19291;SDS011;9779;51.756;7.450;2023-09-12T14:47:58;3.97;;;2.40;;
19291;SDS011;9779;51.756;7.450;2023-09-12T14:50:24;2.50;;;2.30;;
19291;SDS011;9779;51.756;7.450;2023-09-12T14:52:54;2.17;;;1.98;;
19291;SDS011;9779;51.756;7.450;2023-09-12T14:55:19;2.40;;;2.25;;
19291;SDS011;9779;51.756;7.450;2023-09-12T14:57:45;2.47;;;2.10;;
19291;SDS011;9779;51.756;7.450;2023-09-12T15:00:10;2.45;;;2.35;;
19291;SDS011;9779;51.756;7.450;2023-09-12T15:02:36;2.83;;;2.63;;